sensor_id;sensor_type;location;lat;lon;timestamp;pressure;altitude;pressure_sealevel;temperature;humidity
60583;BME280;46415;47.536;19.066;2023-03-23T00:02:12;100316.22;;;5.89;100.00
60583;BME280;46415;47.536;19.066;2023-03-23T00:05:14;100321.53;;;5.82;100.00
60583;BME280;46415;47.536;19.066;2023-03-23T00:08:19;100319.94;;;5.78;100.00
60583;BME280;46415;47.536;19.066;2023-03-23T00:11:27;100327.75;;;5.73;100.00
60583;BME280;46415;47.536;19.066;2023-03-23T00:14:32;100316.81;;;5.65;100.00
60583;BME280;46415;47.536;19.066;2023-03-23T00:17:42;100313.50;;;5.60;100.00
60583;BME280;46415;47.536;19.066;2023-03-23T00:20:54;100310.09;;;5.59;100.00
60583;BME280;46415;47.536;19.066;2023-03-23T00:23:57;100316.97;;;5.59;100.00
60583;BME280;46415;47.536;19.066;2023-03-23T00:27:00;100311.09;;;5.54;100.00
60583;BME280;46415;47.536;19.066;2023-03-23T00:30:05;100306.00;;;5.51;100.00
60583;BME280;46415;47.536;19.066;2023-03-23T00:33:08;100311.31;;;5.43;100.00
60583;BME280;46415;47.536;19.066;2023-03-23T00:36:13;100303.66;;;5.42;100.00
60583;BME280;46415;47.536;19.066;2023-03-23T00:39:15;100301.94;;;5.41;100.00
60583;BME280;46415;47.536;19.066;2023-03-23T00:42:18;100301.06;;;5.42;100.00
60583;BME280;46415;47.536;19.066;2023-03-23T00:45:19;100307.16;;;5.38;100.00
60583;BME280;46415;47.536;19.066;2023-03-23T00:48:23;100301.28;;;5.32;100.00
60583;BME280;46415;47.536;19.066;2023-03-23T00:51:26;100308.97;;;5.34;100.00
60583;BME280;46415;47.536;19.066;2023-03-23T00:54:28;100297.94;;;5.29;100.00
60583;BME280;46415;47.536;19.066;2023-03-23T00:57:30;100297.97;;;5.27;100.00
60583;BME280;46415;47.536;19.066;2023-03-23T01:00:32;100293.66;;;5.28;100.00
60583;BME280;46415;47.536;19.066;2023-03-23T01:03:34;100293.66;;;5.28;100.00
60583;BME280;46415;47.536;19.066;2023-03-23T01:06:37;100288.53;;;5.28;100.00
60583;BME280;46415;47.536;19.066;2023-03-23T01:09:42;100288.72;;;5.19;100.00
60583;BME280;46415;47.536;19.066;2023-03-23T01:12:47;100284.56;;;5.13;100.00
60583;BME280;46415;47.536;19.066;2023-03-23T01:15:49;100290.69;;;5.08;100.00
60583;BME280;46415;47.536;19.066;2023-03-23T01:18:52;100289.81;;;5.10;100.00
60583;BME280;46415;47.536;19.066;2023-03-23T01:21:54;100287.25;;;5.09;100.00
60583;BME280;46415;47.536;19.066;2023-03-23T01:24:55;100289.09;;;5.04;100.00
60583;BME280;46415;47.536;19.066;2023-03-23T01:27:58;100286.50;;;5.05;100.00
60583;BME280;46415;47.536;19.066;2023-03-23T01:31:02;100279.66;;;5.04;100.00
60583;BME280;46415;47.536;19.066;2023-03-23T01:34:04;100284.00;;;5.01;100.00
60583;BME280;46415;47.536;19.066;2023-03-23T01:37:06;100281.53;;;4.96;100.00
60583;BME280;46415;47.536;19.066;2023-03-23T01:40:09;100283.31;;;4.94;100.00
60583;BME280;46415;47.536;19.066;2023-03-23T01:43:14;100282.53;;;4.90;100.00
60583;BME280;46415;47.536;19.066;2023-03-23T01:46:16;100273.16;;;4.88;100.00
60583;BME280;46415;47.536;19.066;2023-03-23T01:49:22;100280.94;;;4.83;100.00
60583;BME280;46415;47.536;19.066;2023-03-23T01:52:26;100277.47;;;4.87;100.00
60583;BME280;46415;47.536;19.066;2023-03-23T01:55:32;100278.34;;;4.86;100.00
60583;BME280;46415;47.536;19.066;2023-03-23T01:58:36;100276.66;;;4.84;100.00
60583;BME280;46415;47.536;19.066;2023-03-23T02:01:39;100281.88;;;4.81;100.00
60583;BME280;46415;47.536;19.066;2023-03-23T02:04:46;100278.44;;;4.82;100.00
60583;BME280;46415;47.536;19.066;2023-03-23T02:07:48;100275.16;;;4.75;100.00
60583;BME280;46415;47.536;19.066;2023-03-23T02:10:51;100274.41;;;4.70;100.00
60583;BME280;46415;47.536;19.066;2023-03-23T02:13:53;100284.75;;;4.67;100.00
60583;BME280;46415;47.536;19.066;2023-03-23T02:17:21;100274.53;;;4.64;100.00
60583;BME280;46415;47.536;19.066;2023-03-23T02:27:10;100282.16;;;4.69;100.00
60583;BME280;46415;47.536;19.066;2023-03-23T02:33:38;100283.88;;;4.67;100.00
60583;BME280;46415;47.536;19.066;2023-03-23T02:36:46;100287.44;;;4.61;100.00
60583;BME280;46415;47.536;19.066;2023-03-23T02:39:56;100289.25;;;4.58;100.00
60583;BME280;46415;47.536;19.066;2023-03-23T02:42:59;100296.06;;;4.59;100.00
60583;BME280;46415;47.536;19.066;2023-03-23T02:46:05;100289.28;;;4.55;100.00
60583;BME280;46415;47.536;19.066;2023-03-23T02:49:10;100292.69;;;4.57;100.00
60583;BME280;46415;47.536;19.066;2023-03-23T02:52:18;100287.59;;;4.53;100.00
60583;BME280;46415;47.536;19.066;2023-03-23T02:55:21;100292.66;;;4.58;100.00
60583;BME280;46415;47.536;19.066;2023-03-23T02:58:27;100292.69;;;4.57;100.00
60583;BME280;46415;47.536;19.066;2023-03-23T03:04:34;100292.72;;;4.53;100.00
60583;BME280;46415;47.536;19.066;2023-03-23T03:11:02;100293.78;;;4.45;100.00
60583;BME280;46415;47.536;19.066;2023-03-23T03:14:09;100296.50;;;4.37;100.00
60583;BME280;46415;47.536;19.066;2023-03-23T03:17:26;100296.56;;;4.34;100.00
60583;BME280;46415;47.536;19.066;2023-03-23T03:20:31;100302.56;;;4.35;100.00
60583;BME280;46415;47.536;19.066;2023-03-23T03:23:36;100296.69;;;4.28;100.00
60583;BME280;46415;47.536;19.066;2023-03-23T03:26:41;100305.19;;;4.30;100.00
60583;BME280;46415;47.536;19.066;2023-03-23T03:29:53;100299.19;;;4.30;100.00
60583;BME280;46415;47.536;19.066;2023-03-23T03:32:55;100304.38;;;4.28;100.00
60583;BME280;46415;47.536;19.066;2023-03-23T03:35:59;100302.72;;;4.26;100.00
60583;BME280;46415;47.536;19.066;2023-03-23T03:39:04;100300.03;;;4.30;100.00
60583;BME280;46415;47.536;19.066;2023-03-23T03:42:10;100311.06;;;4.35;100.00
60583;BME280;46415;47.536;19.066;2023-03-23T03:45:15;100311.91;;;4.37;100.00
60583;BME280;46415;47.536;19.066;2023-03-23T03:48:18;100306.78;;;4.36;100.00
60583;BME280;46415;47.536;19.066;2023-03-23T03:51:19;100309.44;;;4.33;100.00
60583;BME280;46415;47.536;19.066;2023-03-23T03:54:22;100318.13;;;4.26;100.00
60583;BME280;46415;47.536;19.066;2023-03-23T03:57:24;100315.75;;;4.17;100.00
60583;BME280;46415;47.536;19.066;2023-03-23T04:00:28;100320.94;;;4.12;100.00
60583;BME280;46415;47.536;19.066;2023-03-23T04:03:30;100318.47;;;4.07;100.00
60583;BME280;46415;47.536;19.066;2023-03-23T04:06:33;100317.63;;;4.05;100.00
60583;BME280;46415;47.536;19.066;2023-03-23T04:09:37;100324.50;;;4.05;100.00
60583;BME280;46415;47.536;19.066;2023-03-23T04:12:40;100321.97;;;4.03;100.00
60583;BME280;46415;47.536;19.066;2023-03-23T04:15:45;100326.25;;;4.03;100.00
60583;BME280;46415;47.536;19.066;2023-03-23T04:18:47;100327.09;;;4.05;100.00
60583;BME280;46415;47.536;19.066;2023-03-23T04:21:50;100332.16;;;4.06;100.00
60583;BME280;46415;47.536;19.066;2023-03-23T04:24:52;100330.44;;;4.07;100.00
60583;BME280;46415;47.536;19.066;2023-03-23T04:27:54;100330.41;;;4.10;100.00
60583;BME280;46415;47.536;19.066;2023-03-23T04:30:56;100328.72;;;4.07;100.00
60583;BME280;46415;47.536;19.066;2023-03-23T04:33:59;100325.22;;;4.11;100.00
60583;BME280;46415;47.536;19.066;2023-03-23T04:37:03;100325.22;;;4.11;100.00
60583;BME280;46415;47.536;19.066;2023-03-23T04:40:05;100327.78;;;4.13;100.00
60583;BME280;46415;47.536;19.066;2023-03-23T04:43:11;100326.88;;;4.16;100.00
60583;BME280;46415;47.536;19.066;2023-03-23T04:46:14;100322.59;;;4.16;100.00
60583;BME280;46415;47.536;19.066;2023-03-23T04:49:20;100325.13;;;4.18;100.00
60583;BME280;46415;47.536;19.066;2023-03-23T04:52:25;100328.50;;;4.20;100.00
60583;BME280;46415;47.536;19.066;2023-03-23T04:55:27;100328.50;;;4.21;100.00
60583;BME280;46415;47.536;19.066;2023-03-23T04:58:29;100333.62;;;4.21;100.00
60583;BME280;46415;47.536;19.066;2023-03-23T05:01:35;100332.75;;;4.22;100.00
60583;BME280;46415;47.536;19.066;2023-03-23T05:04:40;100328.47;;;4.23;100.00
60583;BME280;46415;47.536;19.066;2023-03-23T05:07:42;100332.66;;;4.27;100.00
60583;BME280;46415;47.536;19.066;2023-03-23T05:10:56;100337.72;;;4.31;100.00
60583;BME280;46415;47.536;19.066;2023-03-23T05:13:58;100336.69;;;4.40;100.00
60583;BME280;46415;47.536;19.066;2023-03-23T05:17:00;100334.00;;;4.46;100.00
60583;BME280;46415;47.536;19.066;2023-03-23T05:20:04;100339.78;;;4.57;100.00
60583;BME280;46415;47.536;19.066;2023-03-23T05:23:09;100337.75;;;4.73;100.00
60583;BME280;46415;47.536;19.066;2023-03-23T05:26:11;100340.06;;;4.85;100.00
60583;BME280;46415;47.536;19.066;2023-03-23T05:29:13;100334.78;;;4.91;100.00
60583;BME280;46415;47.536;19.066;2023-03-23T05:32:17;100326.94;;;4.99;100.00
60583;BME280;46415;47.536;19.066;2023-03-23T05:35:21;100325.84;;;5.09;100.00
60583;BME280;46415;47.536;19.066;2023-03-23T05:38:25;100322.94;;;5.24;100.00
60583;BME280;46415;47.536;19.066;2023-03-23T05:41:27;100322.69;;;5.34;100.00
60583;BME280;46415;47.536;19.066;2023-03-23T05:44:29;100323.00;;;5.56;100.00
60583;BME280;46415;47.536;19.066;2023-03-23T05:47:31;100319.09;;;5.77;100.00
60583;BME280;46415;47.536;19.066;2023-03-23T05:50:33;100312.81;;;5.89;100.00
60583;BME280;46415;47.536;19.066;2023-03-23T05:53:36;100308.91;;;6.06;100.00
60583;BME280;46415;47.536;19.066;2023-03-23T05:56:38;100319.25;;;6.37;100.00
60583;BME280;46415;47.536;19.066;2023-03-23T05:59:44;100316.91;;;6.59;100.00
60583;BME280;46415;47.536;19.066;2023-03-23T06:02:47;100310.94;;;6.86;100.00
60583;BME280;46415;47.536;19.066;2023-03-23T06:05:50;100317.41;;;7.01;100.00
60583;BME280;46415;47.536;19.066;2023-03-23T06:08:52;100314.81;;;7.29;100.00
60583;BME280;46415;47.536;19.066;2023-03-23T06:11:56;100322.13;;;7.43;100.00
60583;BME280;46415;47.536;19.066;2023-03-23T06:14:59;100323.94;;;7.67;100.00
60583;BME280;46415;47.536;19.066;2023-03-23T06:18:02;100327.69;;;7.83;100.00
60583;BME280;46415;47.536;19.066;2023-03-23T06:21:06;100326.91;;;8.06;100.00
60583;BME280;46415;47.536;19.066;2023-03-23T06:24:11;100324.50;;;8.26;100.00
60583;BME280;46415;47.536;19.066;2023-03-23T06:27:12;100322.06;;;8.46;100.00
60583;BME280;46415;47.536;19.066;2023-03-23T06:30:16;100321.31;;;8.68;100.00
60583;BME280;46415;47.536;19.066;2023-03-23T06:33:19;100322.13;;;8.91;100.00
60583;BME280;46415;47.536;19.066;2023-03-23T06:36:25;100320.41;;;9.14;100.00
60583;BME280;46415;47.536;19.066;2023-03-23T06:39:29;100316.31;;;9.30;99.26
60583;BME280;46415;47.536;19.066;2023-03-23T06:42:32;100319.22;;;9.44;96.77
60583;BME280;46415;47.536;19.066;2023-03-23T06:45:35;100324.63;;;9.60;95.85
60583;BME280;46415;47.536;19.066;2023-03-23T06:48:38;100323.97;;;9.55;100.00
60583;BME280;46415;47.536;19.066;2023-03-23T06:51:40;100323.41;;;9.68;100.00
60583;BME280;46415;47.536;19.066;2023-03-23T06:54:43;100329.34;;;9.92;100.00
60583;BME280;46415;47.536;19.066;2023-03-23T06:57:45;100329.47;;;10.09;95.77
60583;BME280;46415;47.536;19.066;2023-03-23T07:00:56;100333.59;;;10.13;95.12
60583;BME280;46415;47.536;19.066;2023-03-23T07:04:03;100325.84;;;10.34;95.15
60583;BME280;46415;47.536;19.066;2023-03-23T07:07:10;100334.91;;;10.64;92.62
60583;BME280;46415;47.536;19.066;2023-03-23T07:10:15;100332.72;;;10.92;89.13
60583;BME280;46415;47.536;19.066;2023-03-23T07:13:17;100331.31;;;11.23;88.01
60583;BME280;46415;47.536;19.066;2023-03-23T07:16:19;100333.66;;;11.46;84.72
60583;BME280;46415;47.536;19.066;2023-03-23T07:19:21;100348.09;;;11.70;79.96
60583;BME280;46415;47.536;19.066;2023-03-23T07:22:23;100347.75;;;11.78;74.84
60583;BME280;46415;47.536;19.066;2023-03-23T07:25:27;100351.56;;;11.88;74.01
60583;BME280;46415;47.536;19.066;2023-03-23T07:28:29;100350.59;;;12.08;73.70
60583;BME280;46415;47.536;19.066;2023-03-23T07:31:35;100350.66;;;12.23;73.09
60583;BME280;46415;47.536;19.066;2023-03-23T07:34:38;100356.84;;;12.38;71.22
60583;BME280;46415;47.536;19.066;2023-03-23T07:37:40;100352.56;;;12.37;70.57
60583;BME280;46415;47.536;19.066;2023-03-23T07:40:42;100356.53;;;12.44;69.72
60583;BME280;46415;47.536;19.066;2023-03-23T07:43:45;100357.56;;;12.57;70.34
60583;BME280;46415;47.536;19.066;2023-03-23T07:46:50;100364.66;;;12.71;68.83
60583;BME280;46415;47.536;19.066;2023-03-23T07:49:53;100362.69;;;12.92;68.38
60583;BME280;46415;47.536;19.066;2023-03-23T07:52:57;100365.63;;;13.01;65.92
60583;BME280;46415;47.536;19.066;2023-03-23T07:55:59;100364.47;;;13.07;65.44
60583;BME280;46415;47.536;19.066;2023-03-23T07:59:05;100367.03;;;13.24;66.44
60583;BME280;46415;47.536;19.066;2023-03-23T08:02:09;100358.94;;;13.13;64.90
60583;BME280;46415;47.536;19.066;2023-03-23T08:05:12;100356.44;;;13.27;64.36
60583;BME280;46415;47.536;19.066;2023-03-23T08:08:17;100357.59;;;13.37;64.07
60583;BME280;46415;47.536;19.066;2023-03-23T08:11:21;100361.72;;;13.41;63.90
60583;BME280;46415;47.536;19.066;2023-03-23T08:14:24;100358.63;;;13.51;63.64
60583;BME280;46415;47.536;19.066;2023-03-23T08:17:30;100368.75;;;13.71;63.13
60583;BME280;46415;47.536;19.066;2023-03-23T08:20:32;100362.59;;;13.87;62.12
60583;BME280;46415;47.536;19.066;2023-03-23T08:23:37;100362.69;;;14.00;60.66
60583;BME280;46415;47.536;19.066;2023-03-23T08:26:39;100360.34;;;14.11;60.11
60583;BME280;46415;47.536;19.066;2023-03-23T08:29:46;100370.84;;;14.40;59.34
60583;BME280;46415;47.536;19.066;2023-03-23T08:32:48;100368.19;;;14.69;57.50
60583;BME280;46415;47.536;19.066;2023-03-23T08:35:58;100365.28;;;14.88;56.62
60583;BME280;46415;47.536;19.066;2023-03-23T08:39:01;100363.59;;;15.01;55.55
60583;BME280;46415;47.536;19.066;2023-03-23T08:42:03;100359.09;;;15.03;54.52
60583;BME280;46415;47.536;19.066;2023-03-23T08:45:07;100362.03;;;15.26;54.31
60583;BME280;46415;47.536;19.066;2023-03-23T08:48:10;100363.50;;;15.44;52.82
60583;BME280;46415;47.536;19.066;2023-03-23T08:51:12;100360.16;;;15.69;52.70
60583;BME280;46415;47.536;19.066;2023-03-23T08:54:15;100359.06;;;15.85;51.74
60583;BME280;46415;47.536;19.066;2023-03-23T08:57:17;100358.78;;;15.90;51.10
60583;BME280;46415;47.536;19.066;2023-03-23T09:00:22;100362.37;;;16.02;50.76
60583;BME280;46415;47.536;19.066;2023-03-23T09:03:27;100355.34;;;16.15;50.37
60583;BME280;46415;47.536;19.066;2023-03-23T09:06:30;100355.13;;;16.05;51.08
60583;BME280;46415;47.536;19.066;2023-03-23T09:09:32;100354.94;;;16.08;50.99
60583;BME280;46415;47.536;19.066;2023-03-23T09:12:36;100349.94;;;16.18;50.36
60583;BME280;46415;47.536;19.066;2023-03-23T09:15:37;100347.22;;;16.32;49.89
60583;BME280;46415;47.536;19.066;2023-03-23T09:18:41;100345.13;;;16.50;49.65
60583;BME280;46415;47.536;19.066;2023-03-23T09:21:42;100354.25;;;16.69;48.59
60583;BME280;46415;47.536;19.066;2023-03-23T09:24:45;100355.09;;;16.70;48.53
60583;BME280;46415;47.536;19.066;2023-03-23T09:27:54;100341.97;;;16.95;48.50
60583;BME280;46415;47.536;19.066;2023-03-23T09:30:58;100336.75;;;17.19;47.34
60583;BME280;46415;47.536;19.066;2023-03-23T09:34:00;100342.13;;;17.05;47.01
60583;BME280;46415;47.536;19.066;2023-03-23T09:37:04;100330.84;;;17.28;46.79
60583;BME280;46415;47.536;19.066;2023-03-23T09:40:10;100329.44;;;17.72;45.75
60583;BME280;46415;47.536;19.066;2023-03-23T09:43:37;100334.00;;;18.27;45.23
60583;BME280;46415;47.536;19.066;2023-03-23T09:50:17;100336.09;;;19.01;42.50
60583;BME280;46415;47.536;19.066;2023-03-23T09:53:26;100329.59;;;19.28;42.22
60583;BME280;46415;47.536;19.066;2023-03-23T09:56:34;100329.16;;;19.54;41.70
60583;BME280;46415;47.536;19.066;2023-03-23T09:59:54;100315.81;;;19.46;41.20
60583;BME280;46415;47.536;19.066;2023-03-23T10:03:19;100316.16;;;19.74;40.45
60583;BME280;46415;47.536;19.066;2023-03-23T10:06:21;100318.69;;;19.75;40.53
60583;BME280;46415;47.536;19.066;2023-03-23T10:09:22;100323.44;;;20.23;40.03
60583;BME280;46415;47.536;19.066;2023-03-23T10:12:33;100310.75;;;20.58;39.14
60583;BME280;46415;47.536;19.066;2023-03-23T10:15:39;100307.97;;;20.29;39.72
60583;BME280;46415;47.536;19.066;2023-03-23T10:18:51;100301.72;;;20.30;39.15
60583;BME280;46415;47.536;19.066;2023-03-23T10:22:05;100293.25;;;20.48;39.66
60583;BME280;46415;47.536;19.066;2023-03-23T10:25:17;100292.97;;;20.51;39.62
60583;BME280;46415;47.536;19.066;2023-03-23T10:28:44;100290.53;;;20.38;39.73
60583;BME280;46415;47.536;19.066;2023-03-23T10:31:55;100285.06;;;20.51;39.44
60583;BME280;46415;47.536;19.066;2023-03-23T10:35:01;100278.41;;;20.56;38.95
60583;BME280;46415;47.536;19.066;2023-03-23T10:38:16;100278.94;;;20.50;39.55
60583;BME280;46415;47.536;19.066;2023-03-23T10:41:20;100277.87;;;20.62;39.64
60583;BME280;46415;47.536;19.066;2023-03-23T10:44:24;100284.56;;;20.66;39.19
60583;BME280;46415;47.536;19.066;2023-03-23T10:47:27;100274.34;;;20.73;39.61
60583;BME280;46415;47.536;19.066;2023-03-23T10:50:33;100261.53;;;20.38;38.89
60583;BME280;46415;47.536;19.066;2023-03-23T10:53:38;100262.25;;;20.40;39.27
60583;BME280;46415;47.536;19.066;2023-03-23T10:56:43;100261.22;;;20.62;38.93
60583;BME280;46415;47.536;19.066;2023-03-23T10:59:49;100259.53;;;20.91;38.61
60583;BME280;46415;47.536;19.066;2023-03-23T11:06:05;100267.37;;;20.72;39.11
60583;BME280;46415;47.536;19.066;2023-03-23T11:09:13;100253.28;;;21.02;38.33
60583;BME280;46415;47.536;19.066;2023-03-23T11:12:17;100259.28;;;21.13;37.69
60583;BME280;46415;47.536;19.066;2023-03-23T11:15:32;100256.59;;;21.04;38.02
60583;BME280;46415;47.536;19.066;2023-03-23T11:18:40;100252.09;;;21.25;37.84
60583;BME280;46415;47.536;19.066;2023-03-23T11:21:47;100238.19;;;21.42;37.10
60583;BME280;46415;47.536;19.066;2023-03-23T11:24:54;100240.28;;;21.29;36.77
60583;BME280;46415;47.536;19.066;2023-03-23T11:27:57;100221.66;;;21.50;36.28
60583;BME280;46415;47.536;19.066;2023-03-23T11:31:05;100224.13;;;21.71;35.82
60583;BME280;46415;47.536;19.066;2023-03-23T11:34:17;100234.16;;;21.67;35.27
60583;BME280;46415;47.536;19.066;2023-03-23T11:37:27;100242.50;;;21.34;35.67
60583;BME280;46415;47.536;19.066;2023-03-23T11:40:31;100241.84;;;20.82;36.12
60583;BME280;46415;47.536;19.066;2023-03-23T11:43:34;100243.50;;;20.73;37.46
60583;BME280;46415;47.536;19.066;2023-03-23T11:46:46;100240.81;;;20.54;36.69
60583;BME280;46415;47.536;19.066;2023-03-23T11:50:00;100235.09;;;19.98;37.45
60583;BME280;46415;47.536;19.066;2023-03-23T11:53:27;100230.81;;;19.76;37.70
60583;BME280;46415;47.536;19.066;2023-03-23T11:56:36;100227.53;;;19.63;38.36
60583;BME280;46415;47.536;19.066;2023-03-23T11:59:38;100221.72;;;19.60;38.51
60583;BME280;46415;47.536;19.066;2023-03-23T12:03:01;100218.94;;;19.82;37.75
60583;BME280;46415;47.536;19.066;2023-03-23T12:06:10;100212.34;;;20.18;37.91
60583;BME280;46415;47.536;19.066;2023-03-23T12:16:26;100194.28;;;21.03;35.89
60583;BME280;46415;47.536;19.066;2023-03-23T12:22:54;100181.50;;;21.27;35.65
60583;BME280;46415;47.536;19.066;2023-03-23T12:48:32;100160.72;;;21.71;34.40
60583;BME280;46415;47.536;19.066;2023-03-23T12:51:42;100151.78;;;21.81;34.03
60583;BME280;46415;47.536;19.066;2023-03-23T12:54:57;100150.25;;;21.98;33.97
60583;BME280;46415;47.536;19.066;2023-03-23T12:58:27;100154.47;;;22.18;33.63
60583;BME280;46415;47.536;19.066;2023-03-23T13:01:41;100156.88;;;22.39;33.71
60583;BME280;46415;47.536;19.066;2023-03-23T13:04:53;100150.97;;;22.27;33.44
60583;BME280;46415;47.536;19.066;2023-03-23T13:08:25;100142.13;;;22.36;33.58
60583;BME280;46415;47.536;19.066;2023-03-23T13:21:36;100141.87;;;22.30;33.70
60583;BME280;46415;47.536;19.066;2023-03-23T13:24:51;100136.56;;;22.39;32.92
60583;BME280;46415;47.536;19.066;2023-03-23T13:27:58;100132.47;;;22.45;32.94
60583;BME280;46415;47.536;19.066;2023-03-23T13:31:12;100130.06;;;22.34;33.49
60583;BME280;46415;47.536;19.066;2023-03-23T13:34:18;100132.84;;;22.77;33.11
60583;BME280;46415;47.536;19.066;2023-03-23T13:37:24;100119.59;;;22.95;32.39
60583;BME280;46415;47.536;19.066;2023-03-23T13:40:28;100132.81;;;23.13;32.11
60583;BME280;46415;47.536;19.066;2023-03-23T13:43:35;100119.97;;;23.00;32.20
60583;BME280;46415;47.536;19.066;2023-03-23T13:46:38;100127.72;;;22.76;32.11
60583;BME280;46415;47.536;19.066;2023-03-23T13:49:55;100120.44;;;22.78;32.55
60583;BME280;46415;47.536;19.066;2023-03-23T13:53:00;100113.66;;;22.93;32.58
60583;BME280;46415;47.536;19.066;2023-03-23T13:56:14;100103.94;;;22.84;32.37
60583;BME280;46415;47.536;19.066;2023-03-23T14:02:40;100108.34;;;22.93;32.27
60583;BME280;46415;47.536;19.066;2023-03-23T14:09:14;100104.78;;;22.85;32.38
60583;BME280;46415;47.536;19.066;2023-03-23T14:12:22;100106.53;;;22.76;32.75
60583;BME280;46415;47.536;19.066;2023-03-23T14:15:30;100101.97;;;22.51;33.13
60583;BME280;46415;47.536;19.066;2023-03-23T14:18:37;100098.16;;;22.35;33.83
60583;BME280;46415;47.536;19.066;2023-03-23T14:21:42;100104.19;;;22.28;33.02
60583;BME280;46415;47.536;19.066;2023-03-23T14:24:50;100093.81;;;22.34;33.31
60583;BME280;46415;47.536;19.066;2023-03-23T14:27:52;100092.25;;;22.42;33.27
60583;BME280;46415;47.536;19.066;2023-03-23T14:30:54;100090.78;;;22.57;33.02
60583;BME280;46415;47.536;19.066;2023-03-23T14:34:03;100089.00;;;23.18;32.15
60583;BME280;46415;47.536;19.066;2023-03-23T14:37:11;100082.28;;;24.18;30.73
60583;BME280;46415;47.536;19.066;2023-03-23T14:40:17;100085.25;;;25.38;29.44
60583;BME280;46415;47.536;19.066;2023-03-23T14:43:20;100092.59;;;26.30;27.84
60583;BME280;46415;47.536;19.066;2023-03-23T14:46:24;100093.28;;;26.77;27.34
60583;BME280;46415;47.536;19.066;2023-03-23T14:49:40;100089.78;;;26.77;27.31
60583;BME280;46415;47.536;19.066;2023-03-23T14:52:43;100092.81;;;26.12;27.48
60583;BME280;46415;47.536;19.066;2023-03-23T14:55:47;100084.19;;;25.71;28.05
60583;BME280;46415;47.536;19.066;2023-03-23T14:58:51;100081.28;;;25.01;29.14
60583;BME280;46415;47.536;19.066;2023-03-23T15:01:53;100082.91;;;24.86;29.45
60583;BME280;46415;47.536;19.066;2023-03-23T15:05:04;100083.75;;;25.27;28.90
60583;BME280;46415;47.536;19.066;2023-03-23T15:08:14;100087.22;;;25.60;28.21
60583;BME280;46415;47.536;19.066;2023-03-23T15:14:25;100079.31;;;25.83;28.20
60583;BME280;46415;47.536;19.066;2023-03-23T15:17:34;100083.38;;;25.54;28.24
60583;BME280;46415;47.536;19.066;2023-03-23T15:20:48;100085.28;;;24.89;29.48
60583;BME280;46415;47.536;19.066;2023-03-23T15:23:49;100084.25;;;24.16;30.56
60583;BME280;46415;47.536;19.066;2023-03-23T15:26:52;100087.72;;;23.74;31.14
60583;BME280;46415;47.536;19.066;2023-03-23T15:29:56;100089.66;;;22.95;32.23
60583;BME280;46415;47.536;19.066;2023-03-23T15:33:11;100095.00;;;22.50;33.12
60583;BME280;46415;47.536;19.066;2023-03-23T15:36:17;100079.88;;;22.60;32.99
60583;BME280;46415;47.536;19.066;2023-03-23T15:39:19;100079.00;;;23.30;32.10
60583;BME280;46415;47.536;19.066;2023-03-23T15:42:27;100076.88;;;24.44;30.66
60583;BME280;46415;47.536;19.066;2023-03-23T15:45:29;100076.19;;;25.79;29.00
60583;BME280;46415;47.536;19.066;2023-03-23T15:48:33;100081.63;;;26.78;27.24
60583;BME280;46415;47.536;19.066;2023-03-23T15:51:46;100082.91;;;27.28;26.87
60583;BME280;46415;47.536;19.066;2023-03-23T15:54:48;100079.69;;;27.33;26.24
60583;BME280;46415;47.536;19.066;2023-03-23T15:57:52;100082.72;;;27.44;25.96
60583;BME280;46415;47.536;19.066;2023-03-23T16:00:55;100080.22;;;26.06;27.42
60583;BME280;46415;47.536;19.066;2023-03-23T16:04:11;100082.16;;;26.20;27.48
60583;BME280;46415;47.536;19.066;2023-03-23T16:07:20;100080.97;;;25.92;27.62
60583;BME280;46415;47.536;19.066;2023-03-23T16:10:25;100083.06;;;24.68;29.24
60583;BME280;46415;47.536;19.066;2023-03-23T16:13:28;100086.22;;;23.46;31.09
60583;BME280;46415;47.536;19.066;2023-03-23T16:16:36;100082.56;;;22.15;33.07
60583;BME280;46415;47.536;19.066;2023-03-23T16:19:39;100081.37;;;21.63;33.98
60583;BME280;46415;47.536;19.066;2023-03-23T16:22:42;100082.88;;;21.18;34.99
60583;BME280;46415;47.536;19.066;2023-03-23T16:25:44;100078.84;;;20.86;35.80
60583;BME280;46415;47.536;19.066;2023-03-23T16:28:47;100089.41;;;20.57;36.26
60583;BME280;46415;47.536;19.066;2023-03-23T16:31:51;100081.47;;;20.47;36.63
60583;BME280;46415;47.536;19.066;2023-03-23T16:34:54;100089.56;;;20.06;37.31
60583;BME280;46415;47.536;19.066;2023-03-23T16:37:57;100091.19;;;19.97;37.90
60583;BME280;46415;47.536;19.066;2023-03-23T16:41:10;100100.72;;;19.58;38.76
60583;BME280;46415;47.536;19.066;2023-03-23T16:44:13;100096.66;;;19.33;39.32
60583;BME280;46415;47.536;19.066;2023-03-23T16:47:16;100098.28;;;19.04;39.80
60583;BME280;46415;47.536;19.066;2023-03-23T16:50:28;100096.66;;;18.60;41.11
60583;BME280;46415;47.536;19.066;2023-03-23T16:53:31;100096.19;;;18.44;41.65
60583;BME280;46415;47.536;19.066;2023-03-23T16:56:35;100106.50;;;18.24;41.86
60583;BME280;46415;47.536;19.066;2023-03-23T16:59:38;100103.06;;;18.13;42.31
60583;BME280;46415;47.536;19.066;2023-03-23T17:02:42;100107.03;;;17.85;43.17
60583;BME280;46415;47.536;19.066;2023-03-23T17:05:47;100110.34;;;17.65;43.83
60583;BME280;46415;47.536;19.066;2023-03-23T17:08:50;100115.44;;;17.55;44.12
60583;BME280;46415;47.536;19.066;2023-03-23T17:11:53;100101.84;;;17.39;44.46
60583;BME280;46415;47.536;19.066;2023-03-23T17:14:56;100107.84;;;17.17;44.91